Map

Track Data

SID SEASON NUMBER BASIN SUBBASIN NAME ISO_TIME NATURE LAT LON WMO_WIND WMO_PRES WMO_AGENCY TRACK_TYPE DIST2LAND LANDFALL IFLAG USA_AGENCY USA_ATCF_ID USA_LAT USA_LON USA_RECORD USA_STATUS USA_WIND USA_PRES USA_SSHS USA_R34_NE USA_R34_SE USA_R34_SW USA_R34_NW USA_R50_NE USA_R50_SE USA_R50_SW USA_R50_NW USA_R64_NE USA_R64_SE USA_R64_SW USA_R64_NW USA_POCI USA_ROCI USA_RMW USA_EYE TOKYO_LAT TOKYO_LON TOKYO_GRADE TOKYO_WIND TOKYO_PRES TOKYO_R50_DIR TOKYO_R50_LONG TOKYO_R50_SHORT TOKYO_R30_DIR TOKYO_R30_LONG TOKYO_R30_SHORT TOKYO_LAND CMA_LAT CMA_LON CMA_CAT CMA_WIND CMA_PRES HKO_LAT HKO_LON HKO_CAT HKO_WIND HKO_PRES NEWDELHI_LAT NEWDELHI_LON NEWDELHI_GRADE NEWDELHI_WIND NEWDELHI_PRES NEWDELHI_CI NEWDELHI_DP NEWDELHI_POCI REUNION_LAT REUNION_LON REUNION_TYPE REUNION_WIND REUNION_PRES REUNION_TNUM REUNION_CI REUNION_RMW REUNION_R34_NE REUNION_R34_SE REUNION_R34_SW REUNION_R34_NW REUNION_R50_NE REUNION_R50_SE REUNION_R50_SW REUNION_R50_NW REUNION_R64_NE REUNION_R64_SE REUNION_R64_SW REUNION_R64_NW BOM_LAT BOM_LON BOM_TYPE BOM_WIND BOM_PRES BOM_TNUM BOM_CI BOM_RMW BOM_R34_NE BOM_R34_SE BOM_R34_SW BOM_R34_NW BOM_R50_NE BOM_R50_SE BOM_R50_SW BOM_R50_NW BOM_R64_NE BOM_R64_SE BOM_R64_SW BOM_R64_NW BOM_ROCI BOM_POCI BOM_EYE BOM_POS_METHOD BOM_PRES_METHOD NADI_LAT NADI_LON NADI_CAT NADI_WIND NADI_PRES WELLINGTON_LAT WELLINGTON_LON WELLINGTON_WIND WELLINGTON_PRES DS824_LAT DS824_LON DS824_STAGE DS824_WIND DS824_PRES TD9636_LAT TD9636_LON TD9636_STAGE TD9636_WIND TD9636_PRES TD9635_LAT TD9635_LON TD9635_WIND TD9635_PRES TD9635_ROCI NEUMANN_LAT NEUMANN_LON NEUMANN_CLASS NEUMANN_WIND NEUMANN_PRES MLC_LAT MLC_LON MLC_CLASS MLC_WIND MLC_PRES USA_GUST BOM_GUST BOM_GUST_PER REUNION_GUST REUNION_GUST_PER USA_SEAHGT USA_SEARAD_NE USA_SEARAD_SE USA_SEARAD_SW USA_SEARAD_NW STORM_SPEED STORM_DIR
1922091S13426 1922 24 SI MM NOT_NAMED 1922-03-31 18:00:00 NR -13.1000 65.8000 main 1165 1143 __________O___ -1 -13.1000 65.8000 7 9 162
1922091S13426 1922 24 SI MM NOT_NAMED 1922-03-31 21:00:00 NR -13.5204 65.9385 main 1143 1129 __________P___ -1 -13.5204 65.9385 7 9 162
1922091S13426 1922 24 SI MM NOT_NAMED 1922-04-01 00:00:00 NR -13.9226 66.0719 main 1130 1109 __________P___ -1 -13.9226 66.0719 7 8 162
1922091S13426 1922 24 SI MM NOT_NAMED 1922-04-01 03:00:00 NR -14.2885 66.1943 main 1111 1098 __________P___ -1 -14.2885 66.1943 7 7 162
1922091S13426 1922 24 SI MM NOT_NAMED 1922-04-01 06:00:00 NR -14.6000 66.3000 main 1100 1094 __________O___ -1 -14.6000 66.3000 7 6 161
1922091S13426 1922 24 SI MM NOT_NAMED 1922-04-01 09:00:00 NR -14.8462 66.3856 main 1096 1084 __________P___ -1 -14.8462 66.3856 7 5 161
1922091S13426 1922 24 SI MM NOT_NAMED 1922-04-01 12:00:00 NR -15.0449 66.4578 main 1093 1081 __________P___ -1 -15.0449 66.4578 7 4 160
1922091S13426 1922 24 SI MM NOT_NAMED 1922-04-01 15:00:00 NR -15.2212 66.5262 main 1081 1075 __________P___ -1 -15.2212 66.5262 7 4 159
1922091S13426 1922 24 SI MM NOT_NAMED 1922-04-01 18:00:00 NR -15.4000 66.6000 main 1079 1073 __________O___ -1 -15.4000 66.6000 7 4 158
1922091S13426 1922 24 SI MM NOT_NAMED 1922-04-01 21:00:00 NR -15.6015 66.6848 main 1077 1071 __________P___ -1 -15.6015 66.6848 7 4 157
1922091S13426 1922 24 SI MM NOT_NAMED 1922-04-02 00:00:00 NR -15.8125 66.7778 main 1075 1065 __________P___ -1 -15.8125 66.7778 7 5 157
1922091S13426 1922 24 SI MM NOT_NAMED 1922-04-02 03:00:00 NR -16.0422 66.8818 main 1074 1064 __________P___ -1 -16.0422 66.8818 7 5 156
1922091S13426 1922 24 SI MM NOT_NAMED 1922-04-02 06:00:00 NR -16.3000 67.0000 main 1069 1064 __________O___ -1 -16.3000 67.0000 7 6 157
1922091S13426 1922 24 SI MM NOT_NAMED 1922-04-02 09:00:00 NR -16.5962 67.1316 main 1064 1064 __________P___ -1 -16.5962 67.1316 7 7 157
1922091S13426 1922 24 SI MM NOT_NAMED 1922-04-02 12:00:00 NR -16.9200 67.2775 main 1070 1062 __________P___ -1 -16.9200 67.2775 7 7 156
1922091S13426 1922 24 SI MM NOT_NAMED 1922-04-02 15:00:00 NR -17.2587 67.4348 main 1064 1064 __________P___ -1 -17.2587 67.4348 7 8 156
1922091S13426 1922 24 SI MM NOT_NAMED 1922-04-02 18:00:00 NR -17.6000 67.6000 main 1073 1070 __________O___ -1 -17.6000 67.6000 7 7 155
1922091S13426 1922 24 SI MM NOT_NAMED 1922-04-02 21:00:00 NR -17.9331 67.7679 main 1084 1078 __________P___ -1 -17.9331 67.7679 7 7 154
1922091S13426 1922 24 SI MM NOT_NAMED 1922-04-03 00:00:00 NR -18.2650 67.9426 main 1083 1083 __________P___ -1 -18.2650 67.9426 7 7 153
1922091S13426 1922 24 SI MM NOT_NAMED 1922-04-03 03:00:00 NR -18.5893 68.1210 main 1096 1096 __________P___ -1 -18.5893 68.1210 7 7 152
1922091S13426 1922 24 SI MM NOT_NAMED 1922-04-03 06:00:00 NR -18.9000 68.3000 main 1110 1108 __________O___ -1 -18.9000 68.3000 7 7 151
1922091S13426 1922 24 SI MM NOT_NAMED 1922-04-03 09:00:00 NR -19.1933 68.4672 main 1126 1124 __________P___ -1 -19.1933 68.4672 7 7 151
1922091S13426 1922 24 SI MM NOT_NAMED 1922-04-03 12:00:00 NR -19.4723 68.6354 main 1132 1132 __________P___ -1 -19.4723 68.6354 7 6 149
1922091S13426 1922 24 SI MM NOT_NAMED 1922-04-03 15:00:00 NR -19.7402 68.8109 main 1151 1150 __________P___ -1 -19.7402 68.8109 7 6 147
1922091S13426 1922 24 SI MM NOT_NAMED 1922-04-03 18:00:00 NR -20.0000 69.0000 main 1169 1168 __________O___ -1 -20.0000 69.0000 7 6 144
1922091S13426 1922 24 SI MM NOT_NAMED 1922-04-03 21:00:00 NR -20.2546 69.2071 main 1188 1188 __________P___ -1 -20.2546 69.2071 7 6 141
1922091S13426 1922 24 SI MM NOT_NAMED 1922-04-04 00:00:00 NR -20.5053 69.4293 main 1208 1208 __________P___ -1 -20.5053 69.4293 7 7 139
1922091S13426 1922 24 SI MM NOT_NAMED 1922-04-04 03:00:00 NR -20.7534 69.6618 main 1239 1239 __________P___ -1 -20.7534 69.6618 7 7 138
1922091S13426 1922 24 SI MM NOT_NAMED 1922-04-04 06:00:00 NR -21.0000 69.9000 main 1260 __________O___ -1 -21.0000 69.9000 7 7 138

About IBTrACS Database

This database is a web-friendly format of International Best Track Archive for Climate Stewardship (IBTrACS), a global best track data archive curated by NOAA dating back to 1842.

Updated: 2021-12-03